Time;durP1;ratioP1;P1;durP2;ratioP2;P2;SDS_P1;SDS_P2;PMS_P1;PMS_P2;Temp;Humidity;BMP_temperature;BMP_pressure;BME280_temperature;BME280_humidity;BME280_pressure;Samples;Min_cycle;Max_cycle;Signal;HPM_P1;HPM_P2
2023/10/08 00:02:49;;;;;;;8.05;3.38;;;;;;;;;;8216055;28;20033;-61
2023/10/08 00:06:52;;;;;;;6.27;3.53;;;;;;;;;;8218717;28;20041;-62
2023/10/08 00:10:53;;;;;;;9.00;4.13;;;;;;;;;;8215256;28;20057;-61
2023/10/08 00:14:54;;;;;;;7.72;3.40;;;;;;;;;;8219134;28;22699;-62
2023/10/08 00:18:59;;;;;;;9.45;3.70;;;;;;;;;;8215403;28;20038;-61
2023/10/08 00:23:02;;;;;;;9.35;3.50;;;;;;;;;;8217825;28;20060;-61
2023/10/08 00:27:06;;;;;;;8.30;3.83;;;;;;;;;;8215770;28;20024;-62
2023/10/08 00:31:12;;;;;;;8.40;3.55;;;;;;;;;;8217621;28;20032;-61
2023/10/08 00:35:13;;;;;;;7.28;3.47;;;;;;;;;;8219852;28;20022;-62
2023/10/08 00:39:14;;;;;;;6.55;3.30;;;;;;;;;;8216901;28;20026;-61
2023/10/08 00:43:35;;;;;;;5.57;3.08;;;;;;;;;;8216956;28;20042;-61
2023/10/08 00:47:42;;;;;;;7.88;3.67;;;;;;;;;;8216773;28;20033;-62
2023/10/08 00:51:45;;;;;;;5.07;3.50;;;;;;;;;;8218886;28;20026;-61
2023/10/08 00:55:53;;;;;;;7.35;3.55;;;;;;;;;;8216040;28;20108;-62
2023/10/08 00:59:53;;;;;;;5.30;3.38;;;;;;;;;;8218546;28;20026;-61
2023/10/08 01:03:55;;;;;;;7.30;2.97;;;;;;;;;;8219330;28;22178;-61
2023/10/08 01:07:56;;;;;;;7.55;3.53;;;;;;;;;;8219872;28;20320;-61
2023/10/08 01:12:09;;;;;;;8.15;3.53;;;;;;;;;;8218976;28;20107;-61
2023/10/08 01:16:09;;;;;;;8.03;3.20;;;;;;;;;;8218117;28;20037;-61
2023/10/08 01:20:21;;;;;;;9.38;3.50;;;;;;;;;;8219337;28;20027;-62
2023/10/08 01:24:24;;;;;;;7.20;3.60;;;;;;;;;;8218336;28;20038;-62
2023/10/08 01:28:28;;;;;;;6.70;3.57;;;;;;;;;;8223136;28;20181;-63
2023/10/08 01:32:34;;;;;;;9.32;3.55;;;;;;;;;;8216031;28;20066;-62
2023/10/08 01:36:35;;;;;;;6.53;3.25;;;;;;;;;;8218449;28;20038;-61
2023/10/08 01:40:36;;;;;;;7.93;3.90;;;;;;;;;;8220027;28;20029;-61
2023/10/08 01:44:36;;;;;;;7.70;3.47;;;;;;;;;;8218223;28;20030;-62
2023/10/08 01:48:38;;;;;;;5.43;3.28;;;;;;;;;;8219388;28;20040;-61
2023/10/08 01:52:40;;;;;;;7.30;3.40;;;;;;;;;;8218294;28;20398;-62
2023/10/08 01:56:41;;;;;;;7.93;3.92;;;;;;;;;;8217398;28;20040;-61
2023/10/08 02:00:47;;;;;;;9.45;3.72;;;;;;;;;;8216838;28;20046;-61
2023/10/08 02:04:47;;;;;;;8.60;3.95;;;;;;;;;;8225533;28;20022;-61
2023/10/08 02:08:48;;;;;;;6.80;3.67;;;;;;;;;;8220761;28;20939;-61
2023/10/08 02:12:48;;;;;;;8.88;3.90;;;;;;;;;;8223116;28;20058;-61
2023/10/08 02:16:49;;;;;;;7.10;3.50;;;;;;;;;;8222561;28;20747;-62
2023/10/08 02:20:49;;;;;;;8.57;3.90;;;;;;;;;;8223771;28;20105;-61
2023/10/08 02:24:50;;;;;;;8.60;3.70;;;;;;;;;;8224685;28;20046;-61
2023/10/08 02:28:51;;;;;;;7.28;3.50;;;;;;;;;;8222551;28;20018;-62
2023/10/08 02:32:52;;;;;;;8.13;3.58;;;;;;;;;;8220991;28;20038;-62
2023/10/08 02:36:52;;;;;;;5.47;3.35;;;;;;;;;;8223995;28;20037;-61
2023/10/08 02:40:56;;;;;;;11.55;3.63;;;;;;;;;;8222371;28;20027;-62
2023/10/08 02:45:00;;;;;;;6.15;3.30;;;;;;;;;;8222357;28;20025;-61
2023/10/08 02:49:03;;;;;;;8.90;3.38;;;;;;;;;;8221936;28;20065;-62
2023/10/08 02:53:10;;;;;;;7.83;3.40;;;;;;;;;;8222412;28;20025;-61
2023/10/08 02:57:14;;;;;;;5.88;3.42;;;;;;;;;;8224941;28;20026;-62
2023/10/08 03:01:14;;;;;;;8.30;3.13;;;;;;;;;;8219519;28;20731;-61
2023/10/08 03:05:17;;;;;;;7.03;3.53;;;;;;;;;;8223741;28;20104;-61
2023/10/08 03:09:22;;;;;;;5.85;3.38;;;;;;;;;;8223675;28;20037;-61
2023/10/08 03:13:23;;;;;;;6.38;3.20;;;;;;;;;;8221561;28;20054;-61
2023/10/08 03:17:23;;;;;;;7.68;3.65;;;;;;;;;;8221963;28;20070;-61
2023/10/08 03:25:41;;;;;;;6.15;3.42;;;;;;;;;;8222756;28;20034;-60
2023/10/08 03:29:41;;;;;;;9.00;3.60;;;;;;;;;;8220252;28;20145;-61
2023/10/08 03:33:43;;;;;;;6.80;3.72;;;;;;;;;;8222053;28;20150;-61
2023/10/08 03:37:45;;;;;;;7.10;3.53;;;;;;;;;;8221876;28;20900;-60
2023/10/08 03:41:58;;;;;;;7.28;3.72;;;;;;;;;;8226012;28;20505;-61
2023/10/08 03:45:59;;;;;;;6.43;3.17;;;;;;;;;;8217250;28;20135;-61
2023/10/08 03:50:05;;;;;;;7.72;3.47;;;;;;;;;;8222223;28;20033;-61
2023/10/08 03:54:15;;;;;;;6.35;3.45;;;;;;;;;;8219572;28;20065;-62
2023/10/08 03:58:29;;;;;;;8.98;3.40;;;;;;;;;;8221813;28;20037;-61
2023/10/08 04:02:46;;;;;;;4.22;3.17;;;;;;;;;;8218000;28;20046;-61
2023/10/08 04:06:51;;;;;;;8.73;3.05;;;;;;;;;;8223424;28;20118;-61
2023/10/08 04:11:22;;;;;;;5.72;3.35;;;;;;;;;;8219932;28;20053;-67
2023/10/08 04:15:23;;;;;;;8.82;3.63;;;;;;;;;;8224285;28;20526;-61
2023/10/08 04:19:29;;;;;;;7.38;3.50;;;;;;;;;;8223179;28;20367;-61
2023/10/08 04:23:30;;;;;;;7.18;3.25;;;;;;;;;;8223468;28;20495;-61
2023/10/08 04:27:33;;;;;;;5.78;3.15;;;;;;;;;;8222725;28;20079;-60
2023/10/08 04:31:37;;;;;;;6.03;3.10;;;;;;;;;;8218710;28;20034;-61
2023/10/08 04:35:47;;;;;;;;;;;;;;;;;;8220830;28;20038;-61
2023/10/08 04:39:54;;;;;;;5.10;2.80;;;;;;;;;;8222045;28;19920;-62
2023/10/08 04:43:55;;;;;;;5.35;2.78;;;;;;;;;;8220566;28;21464;-61
2023/10/08 04:47:58;;;;;;;4.10;2.65;;;;;;;;;;8215685;28;20176;-62
2023/10/08 04:52:18;;;;;;;4.47;2.83;;;;;;;;;;8221198;28;20061;-61
2023/10/08 04:56:18;;;;;;;5.53;2.50;;;;;;;;;;8224442;28;20276;-61
2023/10/08 05:00:40;;;;;;;3.78;2.90;;;;;;;;;;8218683;28;20037;-61
2023/10/08 05:04:56;;;;;;;8.48;3.58;;;;;;;;;;8219423;28;20022;-61
2023/10/08 05:09:09;;;;;;;8.15;3.58;;;;;;;;;;8217411;28;20026;-61
2023/10/08 05:17:10;;;;;;;7.20;3.30;;;;;;;;;;8218946;28;20033;-61
2023/10/08 05:21:25;;;;;;;6.85;3.30;;;;;;;;;;8221663;28;20924;-61
2023/10/08 05:25:35;;;;;;;9.70;3.47;;;;;;;;;;8220565;28;20109;-61
2023/10/08 05:42:45;;;;;;;6.43;3.25;;;;;;;;;;8228572;28;20118;-62
2023/10/08 05:50:55;;;;;;;9.07;3.50;;;;;;;;;;8220350;28;20030;-62
2023/10/08 05:55:11;;;;;;;5.97;3.38;;;;;;;;;;8226241;28;20062;-67
2023/10/08 05:59:17;;;;;;;6.72;3.63;;;;;;;;;;8224005;28;20022;-61
2023/10/08 06:03:36;;;;;;;6.63;3.10;;;;;;;;;;8221138;28;20069;-62
2023/10/08 06:12:10;;;;;;;8.30;3.25;;;;;;;;;;8225622;28;20076;-61
2023/10/08 06:16:30;;;;;;;6.32;3.60;;;;;;;;;;8225591;28;20033;-62
2023/10/08 06:20:34;;;;;;;7.32;3.20;;;;;;;;;;8223853;28;20049;-62
2023/10/08 06:24:38;;;;;;;4.55;3.25;;;;;;;;;;8227287;28;20057;-61
2023/10/08 06:28:39;;;;;;;6.32;3.60;;;;;;;;;;8224987;28;20018;-62
2023/10/08 06:32:39;;;;;;;6.55;3.00;;;;;;;;;;8219778;28;20046;-62
2023/10/08 06:36:39;;;;;;;9.13;3.67;;;;;;;;;;8223982;28;20080;-62
2023/10/08 06:44:43;;;;;;;6.72;3.22;;;;;;;;;;8223961;28;20061;-63
2023/10/08 06:48:43;;;;;;;4.68;3.15;;;;;;;;;;8223087;28;20722;-62
2023/10/08 06:52:43;;;;;;;9.57;3.60;;;;;;;;;;8221054;28;20024;-62
2023/10/08 06:56:46;;;;;;;10.48;3.47;;;;;;;;;;8220917;28;20029;-62
2023/10/08 07:00:46;;;;;;;4.85;2.88;;;;;;;;;;8218090;28;20772;-62
2023/10/08 07:04:47;;;;;;;7.00;3.28;;;;;;;;;;8219378;28;21736;-62
2023/10/08 07:08:54;;;;;;;5.85;3.30;;;;;;;;;;8222837;28;20034;-62
2023/10/08 07:12:54;;;;;;;6.53;3.17;;;;;;;;;;8218871;28;20953;-62
2023/10/08 07:16:58;;;;;;;6.70;3.05;;;;;;;;;;8219542;28;20058;-63
2023/10/08 07:21:02;;;;;;;5.28;3.05;;;;;;;;;;8220998;28;20204;-62
2023/10/08 07:25:08;;;;;;;4.55;3.13;;;;;;;;;;8219127;28;20145;-62
2023/10/08 07:29:08;;;;;;;10.13;3.67;;;;;;;;;;8221041;28;20022;-61
2023/10/08 07:33:17;;;;;;;6.57;3.70;;;;;;;;;;8220909;28;20046;-63
2023/10/08 07:37:17;;;;;;;5.85;3.40;;;;;;;;;;8218592;28;20280;-62
2023/10/08 07:41:20;;;;;;;7.00;3.67;;;;;;;;;;8220120;28;20072;-61
2023/10/08 07:45:21;;;;;;;6.88;3.50;;;;;;;;;;8220347;28;20065;-62
2023/10/08 07:49:31;;;;;;;7.35;3.20;;;;;;;;;;8213045;28;20036;-62
2023/10/08 07:53:38;;;;;;;8.73;3.47;;;;;;;;;;8219086;28;20033;-61
2023/10/08 07:57:38;;;;;;;6.47;3.53;;;;;;;;;;8218048;28;20924;-63
2023/10/08 08:01:40;;;;;;;7.72;3.28;;;;;;;;;;8218142;28;20904;-61
2023/10/08 08:05:41;;;;;;;6.40;3.70;;;;;;;;;;8216044;28;20041;-64
2023/10/08 08:09:44;;;;;;;5.63;3.20;;;;;;;;;;8216246;28;20026;-61
2023/10/08 08:13:45;;;;;;;7.93;3.07;;;;;;;;;;8215785;28;20034;-62
2023/10/08 08:17:47;;;;;;;6.72;3.35;;;;;;;;;;8215851;28;20506;-62
2023/10/08 08:21:48;;;;;;;9.65;3.55;;;;;;;;;;8217161;28;20026;-61
2023/10/08 08:26:11;;;;;;;5.75;3.40;;;;;;;;;;8219891;28;20038;-61
2023/10/08 08:30:15;;;;;;;6.95;3.30;;;;;;;;;;8216569;28;20038;-61
2023/10/08 08:34:19;;;;;;;6.03;3.35;;;;;;;;;;8217910;28;20181;-62
2023/10/08 08:38:20;;;;;;;6.53;3.35;;;;;;;;;;8216340;28;20022;-61
2023/10/08 08:42:22;;;;;;;7.03;3.38;;;;;;;;;;8215348;28;20041;-62
2023/10/08 08:46:32;;;;;;;6.28;3.20;;;;;;;;;;8215430;28;20050;-62
2023/10/08 08:50:33;;;;;;;6.82;3.58;;;;;;;;;;8210581;28;20052;-62
2023/10/08 08:54:36;;;;;;;6.38;3.55;;;;;;;;;;8216186;28;20025;-61
2023/10/08 08:58:37;;;;;;;7.05;3.60;;;;;;;;;;8215129;28;20478;-62
2023/10/08 09:02:38;;;;;;;8.38;3.67;;;;;;;;;;8214718;28;20033;-62
2023/10/08 09:06:38;;;;;;;6.85;3.40;;;;;;;;;;8215280;28;20037;-62
2023/10/08 09:10:50;;;;;;;4.50;2.90;;;;;;;;;;8215546;28;20521;-61
2023/10/08 09:14:51;;;;;;;9.70;3.50;;;;;;;;;;8219743;28;20895;-62
2023/10/08 09:18:52;;;;;;;8.35;3.25;;;;;;;;;;8213038;28;20111;-62
2023/10/08 09:23:11;;;;;;;5.80;3.40;;;;;;;;;;8214003;28;20160;-61
2023/10/08 09:27:15;;;;;;;6.70;3.30;;;;;;;;;;8215483;28;20140;-61
2023/10/08 09:31:17;;;;;;;6.82;3.70;;;;;;;;;;8208762;28;20034;-61
2023/10/08 09:35:18;;;;;;;5.90;3.65;;;;;;;;;;8211398;28;20059;-61
2023/10/08 09:39:23;;;;;;;7.70;3.45;;;;;;;;;;8204152;28;20049;-62
2023/10/08 09:43:26;;;;;;;8.65;3.53;;;;;;;;;;8211260;28;20036;-62
2023/10/08 09:47:26;;;;;;;;;;;;;;;;;;8209685;28;20091;-61
2023/10/08 09:51:31;;;;;;;5.10;3.60;;;;;;;;;;8206051;28;19917;-62
2023/10/08 09:55:32;;;;;;;8.73;4.03;;;;;;;;;;8210404;28;20032;-62
2023/10/08 09:59:33;;;;;;;6.25;3.38;;;;;;;;;;8210190;28;20156;-62
2023/10/08 10:03:36;;;;;;;7.55;3.70;;;;;;;;;;8208448;28;20034;-62
2023/10/08 10:07:36;;;;;;;7.35;3.70;;;;;;;;;;8211470;28;20033;-62
2023/10/08 10:11:37;;;;;;;6.97;3.33;;;;;;;;;;8207999;28;20464;-62
2023/10/08 10:15:37;;;;;;;9.68;3.55;;;;;;;;;;8211303;28;20129;-62
2023/10/08 10:19:38;;;;;;;7.00;3.72;;;;;;;;;;8204374;28;20017;-62
2023/10/08 10:23:40;;;;;;;8.02;3.83;;;;;;;;;;8216411;28;20147;-61
2023/10/08 10:27:52;;;;;;;8.65;3.50;;;;;;;;;;8215799;28;20022;-63
2023/10/08 10:31:53;;;;;;;14.07;3.70;;;;;;;;;;8214534;28;20414;-61
2023/10/08 10:35:54;;;;;;;10.02;3.50;;;;;;;;;;8211664;28;20092;-61
2023/10/08 10:40:01;;;;;;;8.77;3.90;;;;;;;;;;8218340;28;20037;-61
2023/10/08 10:44:08;;;;;;;10.57;3.90;;;;;;;;;;8216615;28;20026;-63
2023/10/08 10:56:42;;;;;;;7.60;3.80;;;;;;;;;;8210463;28;20037;-62
2023/10/08 11:04:49;;;;;;;7.40;3.88;;;;;;;;;;8211333;28;20490;-62
2023/10/08 11:08:52;;;;;;;12.25;3.92;;;;;;;;;;8214360;28;20055;-62
2023/10/08 11:12:54;;;;;;;11.45;4.03;;;;;;;;;;8217598;28;20037;-62
2023/10/08 11:16:55;;;;;;;10.93;3.92;;;;;;;;;;8217809;28;21546;-62
2023/10/08 11:21:13;;;;;;;10.75;3.42;;;;;;;;;;8220594;28;20153;-62
2023/10/08 11:25:27;;;;;;;8.18;3.60;;;;;;;;;;8218942;28;20082;-61
2023/10/08 11:29:27;;;;;;;11.27;3.50;;;;;;;;;;8217297;28;20161;-62
2023/10/08 11:33:28;;;;;;;9.82;3.75;;;;;;;;;;8217312;28;20565;-61
2023/10/08 11:37:35;;;;;;;10.70;3.47;;;;;;;;;;8219658;28;20033;-62
2023/10/08 11:41:49;;;;;;;9.05;3.20;;;;;;;;;;8220388;28;20041;-61
2023/10/08 11:45:50;;;;;;;11.80;3.38;;;;;;;;;;8217472;28;20156;-61
2023/10/08 11:49:57;;;;;;;14.80;4.07;;;;;;;;;;8211988;28;20490;-61
2023/10/08 11:53:57;;;;;;;11.20;3.42;;;;;;;;;;8217658;28;22294;-62
2023/10/08 11:57:57;;;;;;;10.38;3.55;;;;;;;;;;8219715;28;20033;-62
2023/10/08 12:01:57;;;;;;;9.97;3.70;;;;;;;;;;8216076;28;20038;-61
2023/10/08 12:06:01;;;;;;;6.25;3.05;;;;;;;;;;8218237;28;20091;-62
2023/10/08 12:10:02;;;;;;;7.43;3.45;;;;;;;;;;8213439;28;20030;-61
2023/10/08 12:14:02;;;;;;;10.38;3.97;;;;;;;;;;8218361;28;20582;-62
2023/10/08 12:18:13;;;;;;;10.40;3.55;;;;;;;;;;8214148;28;20073;-62
2023/10/08 12:22:17;;;;;;;10.13;3.30;;;;;;;;;;8217290;28;20156;-61
2023/10/08 12:26:20;;;;;;;11.85;4.05;;;;;;;;;;8216717;28;20113;-61
2023/10/08 12:30:30;;;;;;;7.03;3.60;;;;;;;;;;8215120;28;20041;-61
2023/10/08 12:34:34;;;;;;;12.30;3.67;;;;;;;;;;8216023;28;21126;-61
2023/10/08 12:38:35;;;;;;;11.60;3.45;;;;;;;;;;8217557;28;20112;-61
2023/10/08 12:42:35;;;;;;;10.48;3.83;;;;;;;;;;8215112;28;20029;-61
2023/10/08 12:46:36;;;;;;;10.40;3.63;;;;;;;;;;8216913;28;20164;-62
2023/10/08 12:50:42;;;;;;;7.32;3.80;;;;;;;;;;8216173;28;20033;-61
2023/10/08 12:54:45;;;;;;;7.13;2.92;;;;;;;;;;8218308;28;20088;-61
2023/10/08 12:58:47;;;;;;;11.60;3.10;;;;;;;;;;8215488;28;20052;-61
2023/10/08 13:02:53;;;;;;;9.77;3.72;;;;;;;;;;8215105;28;20034;-61
2023/10/08 13:06:57;;;;;;;7.97;3.90;;;;;;;;;;8219059;28;20022;-60
2023/10/08 13:11:00;;;;;;;9.45;3.13;;;;;;;;;;8215756;28;21016;-61
2023/10/08 13:15:06;;;;;;;11.45;3.47;;;;;;;;;;8216695;28;20373;-67
2023/10/08 13:19:08;;;;;;;8.13;3.78;;;;;;;;;;8213429;28;20038;-61
2023/10/08 13:23:09;;;;;;;11.27;3.47;;;;;;;;;;8214815;28;20034;-61
2023/10/08 13:27:09;;;;;;;10.77;3.33;;;;;;;;;;8212517;28;20031;-61
2023/10/08 13:31:10;;;;;;;12.63;4.78;;;;;;;;;;8214410;28;20662;-61
2023/10/08 13:35:11;;;;;;;12.95;3.83;;;;;;;;;;8213531;28;20044;-61
2023/10/08 13:39:18;;;;;;;10.45;3.75;;;;;;;;;;8212002;28;20028;-60
2023/10/08 13:43:18;;;;;;;10.15;3.63;;;;;;;;;;8215922;28;20077;-60
2023/10/08 13:47:19;;;;;;;8.00;3.20;;;;;;;;;;8213782;28;20038;-61
2023/10/08 13:51:20;;;;;;;10.70;3.65;;;;;;;;;;8215154;28;20021;-62
2023/10/08 13:55:25;;;;;;;13.15;3.88;;;;;;;;;;8217002;28;20060;-61
2023/10/08 13:59:25;;;;;;;8.27;3.53;;;;;;;;;;8219491;28;20019;-62
2023/10/08 14:03:26;;;;;;;11.15;3.50;;;;;;;;;;8221331;28;20034;-61
2023/10/08 14:07:27;;;;;;;11.73;3.70;;;;;;;;;;8222548;28;20040;-61
2023/10/08 14:11:30;;;;;;;8.70;3.53;;;;;;;;;;8221026;28;20129;-64
2023/10/08 14:15:32;;;;;;;13.63;3.53;;;;;;;;;;8223217;28;20061;-62
2023/10/08 14:19:51;;;;;;;9.27;3.47;;;;;;;;;;8221411;28;20037;-62
2023/10/08 14:23:52;;;;;;;6.80;3.63;;;;;;;;;;8219358;28;20088;-61
2023/10/08 14:27:52;;;;;;;9.98;3.50;;;;;;;;;;8220980;28;20054;-61
2023/10/08 14:31:55;;;;;;;10.65;3.38;;;;;;;;;;8219777;28;20034;-61
2023/10/08 14:44:34;;;;;;;11.02;3.78;;;;;;;;;;8223787;28;20703;-60
2023/10/08 14:48:37;;;;;;;9.07;3.38;;;;;;;;;;8220977;28;20849;-60
2023/10/08 14:52:37;;;;;;;6.75;3.40;;;;;;;;;;8221893;28;20026;-61
2023/10/08 14:56:39;;;;;;;12.02;3.25;;;;;;;;;;8222320;28;20060;-60
2023/10/08 15:00:41;;;;;;;12.07;3.50;;;;;;;;;;8219833;28;20041;-62
2023/10/08 15:04:42;;;;;;;7.07;3.38;;;;;;;;;;8223435;28;20605;-60
2023/10/08 15:08:42;;;;;;;7.53;3.30;;;;;;;;;;8219194;28;20025;-60
2023/10/08 15:12:43;;;;;;;8.07;3.67;;;;;;;;;;8218686;28;20044;-61
2023/10/08 15:16:46;;;;;;;10.40;3.60;;;;;;;;;;8219275;28;20400;-61
2023/10/08 15:20:46;;;;;;;12.90;3.78;;;;;;;;;;8218972;28;20144;-60
2023/10/08 15:24:46;;;;;;;8.35;3.42;;;;;;;;;;8219816;28;20479;-61
2023/10/08 15:28:47;;;;;;;10.68;3.50;;;;;;;;;;8221186;28;20026;-61
2023/10/08 15:32:48;;;;;;;6.55;3.20;;;;;;;;;;8217971;28;20038;-61
2023/10/08 15:36:48;;;;;;;10.00;4.03;;;;;;;;;;8216423;28;20130;-63
2023/10/08 15:40:49;;;;;;;5.90;3.17;;;;;;;;;;8219102;28;20057;-62
2023/10/08 15:44:49;;;;;;;5.20;3.08;;;;;;;;;;8220825;28;20045;-62
2023/10/08 15:48:49;;;;;;;10.70;3.20;;;;;;;;;;8220752;28;20026;-62
2023/10/08 15:52:50;;;;;;;8.60;3.47;;;;;;;;;;8218935;28;20116;-62
2023/10/08 15:56:50;;;;;;;7.68;3.30;;;;;;;;;;8220443;28;20041;-62
2023/10/08 16:00:50;;;;;;;9.37;3.97;;;;;;;;;;8219230;28;20042;-62
2023/10/08 16:04:51;;;;;;;8.97;3.40;;;;;;;;;;8218563;28;20057;-62
2023/10/08 16:08:51;;;;;;;10.80;3.33;;;;;;;;;;8219500;28;20312;-62
2023/10/08 16:12:51;;;;;;;5.00;2.88;;;;;;;;;;8217752;28;20014;-62
2023/10/08 16:16:51;;;;;;;8.82;3.08;;;;;;;;;;8218609;28;20041;-62
2023/10/08 16:20:52;;;;;;;10.10;3.28;;;;;;;;;;8219036;28;20027;-62
2023/10/08 16:24:53;;;;;;;13.05;3.75;;;;;;;;;;8215628;28;20034;-62
2023/10/08 16:28:54;;;;;;;9.73;3.53;;;;;;;;;;8216895;28;20156;-62
2023/10/08 16:32:54;;;;;;;7.68;3.25;;;;;;;;;;8215936;28;20046;-61
2023/10/08 16:36:54;;;;;;;11.40;3.88;;;;;;;;;;8215563;28;22610;-62
2023/10/08 16:40:55;;;;;;;9.00;3.23;;;;;;;;;;8214206;28;21203;-61
2023/10/08 16:44:56;;;;;;;7.85;3.45;;;;;;;;;;8217451;28;22645;-62
2023/10/08 16:48:56;;;;;;;12.05;3.40;;;;;;;;;;8210561;28;20681;-62
2023/10/08 16:52:56;;;;;;;10.32;3.83;;;;;;;;;;8210436;28;20030;-63
2023/10/08 16:56:57;;;;;;;8.53;3.53;;;;;;;;;;8210776;28;20057;-60
2023/10/08 17:00:57;;;;;;;8.80;3.20;;;;;;;;;;8213232;28;20400;-62
2023/10/08 17:04:58;;;;;;;6.93;3.00;;;;;;;;;;8209885;28;20025;-62
2023/10/08 17:08:58;;;;;;;8.88;3.60;;;;;;;;;;8210491;28;22160;-61
2023/10/08 17:12:58;;;;;;;9.77;3.38;;;;;;;;;;8214486;28;21562;-62
2023/10/08 17:17:02;;;;;;;8.27;3.33;;;;;;;;;;8207469;28;22320;-62
2023/10/08 17:21:02;;;;;;;8.90;3.28;;;;;;;;;;8211821;28;20300;-62
2023/10/08 17:25:05;;;;;;;7.22;3.40;;;;;;;;;;8211889;28;20069;-64
2023/10/08 17:29:06;;;;;;;10.20;3.33;;;;;;;;;;8213075;28;20018;-62
2023/10/08 17:33:07;;;;;;;9.27;3.67;;;;;;;;;;8213647;28;20101;-62
2023/10/08 17:37:07;;;;;;;10.02;3.40;;;;;;;;;;8216586;28;20842;-62
2023/10/08 17:41:09;;;;;;;11.73;3.13;;;;;;;;;;8218964;28;20027;-62
2023/10/08 17:45:13;;;;;;;8.55;3.50;;;;;;;;;;8215374;28;20121;-62
2023/10/08 17:49:14;;;;;;;10.50;3.78;;;;;;;;;;8217968;28;20029;-62
2023/10/08 17:53:15;;;;;;;8.52;3.78;;;;;;;;;;8209335;28;20033;-64
2023/10/08 17:57:15;;;;;;;10.70;3.58;;;;;;;;;;8218686;28;20022;-62
2023/10/08 18:01:16;;;;;;;10.63;3.77;;;;;;;;;;8214081;28;20116;-62
2023/10/08 18:05:17;;;;;;;9.05;3.72;;;;;;;;;;8214085;28;20776;-63
2023/10/08 18:09:20;;;;;;;13.00;3.50;;;;;;;;;;8212552;28;20112;-62
2023/10/08 18:13:20;;;;;;;10.40;4.43;;;;;;;;;;8217576;28;20161;-63
2023/10/08 18:17:22;;;;;;;10.77;3.70;;;;;;;;;;8215389;28;20149;-63
2023/10/08 18:21:22;;;;;;;10.75;4.00;;;;;;;;;;8218402;28;20289;-62
2023/10/08 18:25:22;;;;;;;11.68;4.22;;;;;;;;;;8216338;28;20775;-61
2023/10/08 18:29:23;;;;;;;10.53;4.20;;;;;;;;;;8216760;28;20026;-61
2023/10/08 18:33:23;;;;;;;17.60;4.30;;;;;;;;;;8216107;28;20278;-62
2023/10/08 18:37:23;;;;;;;12.02;4.22;;;;;;;;;;8215676;28;20478;-62
2023/10/08 18:41:25;;;;;;;10.03;3.77;;;;;;;;;;8217719;28;20455;-63
2023/10/08 18:45:26;;;;;;;11.50;4.05;;;;;;;;;;8217301;28;20689;-63
2023/10/08 18:49:28;;;;;;;13.82;4.10;;;;;;;;;;8219434;28;20029;-64
2023/10/08 18:53:29;;;;;;;12.90;3.70;;;;;;;;;;8218094;28;20487;-64
2023/10/08 18:57:29;;;;;;;9.73;3.95;;;;;;;;;;8217384;28;20489;-63
2023/10/08 19:01:31;;;;;;;8.27;3.93;;;;;;;;;;8214734;28;20041;-61
2023/10/08 19:05:34;;;;;;;9.13;3.85;;;;;;;;;;8214132;28;20121;-63
2023/10/08 19:09:35;;;;;;;13.80;3.92;;;;;;;;;;8218219;28;20034;-62
2023/10/08 19:13:36;;;;;;;10.97;4.00;;;;;;;;;;8222343;28;20479;-63
2023/10/08 19:17:36;;;;;;;14.07;4.03;;;;;;;;;;8215366;28;20308;-63
2023/10/08 19:21:39;;;;;;;10.50;3.78;;;;;;;;;;8212209;28;20142;-64
2023/10/08 19:25:46;;;;;;;8.30;3.60;;;;;;;;;;8212930;28;20033;-63
2023/10/08 19:29:46;;;;;;;11.35;3.78;;;;;;;;;;8211532;28;20306;-63
2023/10/08 19:33:47;;;;;;;9.27;3.80;;;;;;;;;;8216928;28;20069;-63
2023/10/08 19:37:47;;;;;;;11.60;4.20;;;;;;;;;;8217380;28;20295;-62
2023/10/08 19:41:48;;;;;;;13.13;4.43;;;;;;;;;;8217287;28;20044;-62
2023/10/08 19:45:48;;;;;;;10.93;3.95;;;;;;;;;;8217120;28;20037;-64
2023/10/08 19:49:49;;;;;;;9.10;3.58;;;;;;;;;;8214278;28;20817;-63
2023/10/08 19:53:55;;;;;;;10.40;3.65;;;;;;;;;;8212431;28;20022;-62
2023/10/08 19:57:55;;;;;;;9.90;3.70;;;;;;;;;;8214498;28;20057;-62
2023/10/08 20:01:55;;;;;;;12.37;4.70;;;;;;;;;;8214327;28;20086;-63
2023/10/08 20:05:57;;;;;;;13.55;4.30;;;;;;;;;;8216976;28;20765;-62
2023/10/08 20:09:57;;;;;;;11.45;4.43;;;;;;;;;;8213152;28;20026;-63
2023/10/08 20:13:57;;;;;;;15.18;4.72;;;;;;;;;;8216315;28;20026;-62
2023/10/08 20:17:58;;;;;;;17.48;4.30;;;;;;;;;;8215605;28;20174;-64
2023/10/08 20:21:59;;;;;;;16.23;4.80;;;;;;;;;;8220168;28;20059;-65
2023/10/08 20:26:08;;;;;;;14.68;4.80;;;;;;;;;;8218964;28;20032;-62
2023/10/08 20:30:15;;;;;;;14.40;5.07;;;;;;;;;;8221216;28;20574;-63
2023/10/08 20:34:15;;;;;;;15.43;4.90;;;;;;;;;;8224618;28;20128;-63
2023/10/08 20:38:17;;;;;;;17.05;5.43;;;;;;;;;;8219088;28;20154;-64
2023/10/08 20:42:18;;;;;;;14.45;4.50;;;;;;;;;;8221102;28;20355;-63
2023/10/08 20:46:19;;;;;;;13.70;4.57;;;;;;;;;;8222045;28;20038;-63
2023/10/08 20:50:20;;;;;;;11.57;3.75;;;;;;;;;;8223268;28;20025;-65
2023/10/08 20:54:20;;;;;;;12.32;4.35;;;;;;;;;;8220613;28;20026;-62
2023/10/08 20:58:25;;;;;;;11.82;4.45;;;;;;;;;;8219870;28;20022;-63
2023/10/08 21:02:25;;;;;;;9.63;4.22;;;;;;;;;;8218281;28;20502;-63
2023/10/08 21:06:25;;;;;;;10.63;4.40;;;;;;;;;;8218711;28;20034;-64
2023/10/08 21:10:25;;;;;;;9.60;3.80;;;;;;;;;;8218145;28;20038;-63
2023/10/08 21:14:26;;;;;;;11.25;3.83;;;;;;;;;;8218134;28;20102;-64
2023/10/08 21:18:28;;;;;;;12.05;4.68;;;;;;;;;;8218844;28;20046;-62
2023/10/08 21:22:28;;;;;;;10.90;3.47;;;;;;;;;;8216058;28;20506;-62
2023/10/08 21:26:28;;;;;;;7.83;3.80;;;;;;;;;;8215276;28;21540;-62
2023/10/08 21:30:28;;;;;;;13.32;4.22;;;;;;;;;;8212420;28;20034;-62
2023/10/08 21:34:29;;;;;;;11.93;3.90;;;;;;;;;;8215729;28;20025;-63
2023/10/08 21:38:30;;;;;;;8.65;3.90;;;;;;;;;;8215820;28;20038;-62
2023/10/08 21:42:30;;;;;;;9.80;3.70;;;;;;;;;;8214661;28;20024;-63
2023/10/08 21:46:31;;;;;;;7.47;3.08;;;;;;;;;;8212615;28;20309;-62
2023/10/08 21:50:31;;;;;;;7.72;3.42;;;;;;;;;;8213294;28;20044;-62
2023/10/08 21:54:31;;;;;;;7.97;3.20;;;;;;;;;;8214112;28;20019;-63
2023/10/08 21:58:33;;;;;;;7.60;3.05;;;;;;;;;;8219112;28;20730;-63
2023/10/08 22:02:56;;;;;;;7.95;3.40;;;;;;;;;;8213900;28;20042;-63
2023/10/08 22:06:56;;;;;;;9.98;3.10;;;;;;;;;;8213258;28;20041;-63
2023/10/08 22:10:57;;;;;;;9.60;3.30;;;;;;;;;;8216189;28;23246;-63
2023/10/08 22:15:05;;;;;;;5.83;3.07;;;;;;;;;;8212859;28;21460;-62
2023/10/08 22:19:06;;;;;;;6.50;3.30;;;;;;;;;;8221158;28;20053;-62
2023/10/08 22:23:07;;;;;;;5.80;3.38;;;;;;;;;;8227931;28;20048;-62
2023/10/08 22:31:27;;;;;;;5.55;2.80;;;;;;;;;;8221852;28;20130;-63
2023/10/08 22:35:28;;;;;;;6.35;3.00;;;;;;;;;;8222177;28;20034;-62
2023/10/08 22:39:29;;;;;;;5.45;3.05;;;;;;;;;;8223459;28;20447;-62
2023/10/08 22:43:35;;;;;;;5.68;2.88;;;;;;;;;;8225079;28;20382;-63
2023/10/08 22:47:35;;;;;;;11.02;3.15;;;;;;;;;;8221355;28;20054;-62
2023/10/08 22:51:36;;;;;;;7.10;2.83;;;;;;;;;;8220202;28;20034;-62
2023/10/08 22:55:37;;;;;;;5.45;2.65;;;;;;;;;;8221013;28;20029;-62
2023/10/08 22:59:39;;;;;;;7.38;2.60;;;;;;;;;;8223948;28;20029;-63
2023/10/08 23:03:42;;;;;;;4.20;2.13;;;;;;;;;;8218323;28;20033;-62
2023/10/08 23:07:42;;;;;;;6.60;2.50;;;;;;;;;;8219937;28;20092;-63
2023/10/08 23:11:47;;;;;;;3.63;2.30;;;;;;;;;;8218686;28;20687;-62
2023/10/08 23:15:49;;;;;;;6.93;2.40;;;;;;;;;;8220178;28;20034;-62
2023/10/08 23:19:51;;;;;;;5.85;2.40;;;;;;;;;;8224761;28;20141;-62
2023/10/08 23:23:51;;;;;;;7.95;2.50;;;;;;;;;;8223159;28;20746;-62
2023/10/08 23:27:52;;;;;;;5.68;2.17;;;;;;;;;;8219926;28;20737;-62
2023/10/08 23:31:52;;;;;;;9.57;2.77;;;;;;;;;;8220605;28;20127;-63
2023/10/08 23:35:54;;;;;;;3.88;2.05;;;;;;;;;;8220440;28;20403;-62
2023/10/08 23:39:54;;;;;;;9.30;2.40;;;;;;;;;;8221935;28;20025;-63
2023/10/08 23:43:55;;;;;;;3.90;2.00;;;;;;;;;;8221687;28;20032;-63
2023/10/08 23:47:55;;;;;;;7.85;2.20;;;;;;;;;;8218363;28;20053;-63
2023/10/08 23:52:00;;;;;;;5.07;2.47;;;;;;;;;;8219159;28;20034;-62
2023/10/08 23:56:06;;;;;;;11.77;3.60;;;;;;;;;;8216184;28;20053;-63
